Time;durP1;ratioP1;P1;durP2;ratioP2;P2;SDS_P1;SDS_P2;PMS_P1;PMS_P2;Temp;Humidity;BMP_temperature;BMP_pressure;BME280_temperature;BME280_humidity;BME280_pressure;Samples;Min_cycle;Max_cycle;Signal;HPM_P1;HPM_P2
2023/10/26 00:00:41;;;;;;;27.80;9.02;;;;;;;;;;5075503;28;20056;-65
2023/10/26 00:03:09;;;;;;;24.63;8.15;;;;;;;;;;5075387;28;20044;-65
2023/10/26 00:05:36;;;;;;;23.10;7.97;;;;;;;;;;5075309;28;20064;-65
2023/10/26 00:08:04;;;;;;;28.08;8.93;;;;;;;;;;5075270;28;20041;-65
2023/10/26 00:10:32;;;;;;;26.67;8.02;;;;;;;;;;5075265;28;20036;-65
2023/10/26 00:12:59;;;;;;;29.60;9.32;;;;;;;;;;5075346;28;20045;-65
2023/10/26 00:15:27;;;;;;;30.48;8.95;;;;;;;;;;5075078;28;20083;-65
2023/10/26 00:17:54;;;;;;;21.92;8.13;;;;;;;;;;5075152;28;20098;-65
2023/10/26 00:20:22;;;;;;;31.10;8.25;;;;;;;;;;5075116;28;20032;-65
2023/10/26 00:22:49;;;;;;;23.73;8.75;;;;;;;;;;5078015;28;20044;-65
2023/10/26 00:25:17;;;;;;;27.85;8.90;;;;;;;;;;5095292;28;20493;-65
2023/10/26 00:27:44;;;;;;;28.73;8.82;;;;;;;;;;5095128;28;20453;-65
2023/10/26 00:30:12;;;;;;;26.90;8.27;;;;;;;;;;5095129;28;20043;-65
2023/10/26 00:32:40;;;;;;;26.95;8.23;;;;;;;;;;5090930;28;20048;-65
2023/10/26 00:35:08;;;;;;;29.10;7.90;;;;;;;;;;5094033;28;20040;-65
2023/10/26 00:37:36;;;;;;;22.33;8.10;;;;;;;;;;5094871;28;20097;-65
2023/10/26 00:40:03;;;;;;;22.17;7.38;;;;;;;;;;5086509;28;20069;-65
2023/10/26 00:42:31;;;;;;;31.38;7.95;;;;;;;;;;5079162;28;20109;-65
2023/10/26 00:44:58;;;;;;;21.20;7.53;;;;;;;;;;5090511;28;20482;-65
2023/10/26 00:47:27;;;;;;;28.20;7.70;;;;;;;;;;5094900;28;20047;-64
2023/10/26 00:49:54;;;;;;;31.63;8.27;;;;;;;;;;5077117;28;20127;-64
2023/10/26 00:52:22;;;;;;;29.52;7.47;;;;;;;;;;5094773;28;20040;-65
2023/10/26 00:54:50;;;;;;;25.77;7.22;;;;;;;;;;5089446;28;20054;-65
2023/10/26 00:57:18;;;;;;;26.17;7.75;;;;;;;;;;5073062;28;20214;-65
2023/10/26 00:59:46;;;;;;;22.85;7.28;;;;;;;;;;5073060;28;20043;-65
2023/10/26 01:02:15;;;;;;;31.05;7.43;;;;;;;;;;5073167;28;20033;-65
2023/10/26 01:04:43;;;;;;;18.77;6.03;;;;;;;;;;5073954;28;20119;-65
2023/10/26 01:07:11;;;;;;;24.35;6.85;;;;;;;;;;5072206;28;20053;-65
2023/10/26 01:09:38;;;;;;;25.38;7.40;;;;;;;;;;5069385;28;20041;-65
2023/10/26 01:12:06;;;;;;;21.20;6.38;;;;;;;;;;5085645;28;20044;-65
2023/10/26 01:14:34;;;;;;;26.38;6.72;;;;;;;;;;5089846;28;20052;-65
2023/10/26 01:17:02;;;;;;;23.23;6.45;;;;;;;;;;5073347;28;20139;-65
2023/10/26 01:19:43;;;;;;;21.88;5.75;;;;;;;;;;5089447;28;20135;-65
2023/10/26 01:22:10;;;;;;;26.00;6.97;;;;;;;;;;5073307;28;20095;-64
2023/10/26 01:24:39;;;;;;;24.90;6.53;;;;;;;;;;5087277;28;20071;-64
2023/10/26 01:27:07;;;;;;;21.58;5.97;;;;;;;;;;5086275;28;20102;-64
2023/10/26 01:29:34;;;;;;;25.00;6.40;;;;;;;;;;5092878;28;20050;-64
2023/10/26 01:32:02;;;;;;;27.75;6.50;;;;;;;;;;5094199;28;20043;-65
2023/10/26 01:34:31;;;;;;;27.40;6.90;;;;;;;;;;5084863;28;20048;-65
2023/10/26 01:36:59;;;;;;;24.95;6.75;;;;;;;;;;5072261;28;20044;-65
2023/10/26 01:39:26;;;;;;;27.23;6.70;;;;;;;;;;5073919;28;20124;-65
2023/10/26 01:41:54;;;;;;;24.00;6.00;;;;;;;;;;5072297;28;20051;-65
2023/10/26 01:44:22;;;;;;;26.38;7.10;;;;;;;;;;5072138;28;20409;-64
2023/10/26 01:46:50;;;;;;;24.63;7.15;;;;;;;;;;5072437;28;20044;-65
2023/10/26 01:49:18;;;;;;;28.02;6.88;;;;;;;;;;5090421;28;20075;-65
2023/10/26 01:51:45;;;;;;;26.35;6.78;;;;;;;;;;5092379;28;20064;-64
2023/10/26 01:54:13;;;;;;;26.42;7.18;;;;;;;;;;5092169;28;20076;-66
2023/10/26 01:56:40;;;;;;;27.38;6.35;;;;;;;;;;5079923;28;20408;-65
2023/10/26 01:59:08;;;;;;;26.90;7.10;;;;;;;;;;5092104;28;20036;-64
2023/10/26 02:01:37;;;;;;;21.25;6.80;;;;;;;;;;5092382;28;20051;-64
2023/10/26 02:04:05;;;;;;;29.02;7.60;;;;;;;;;;5092178;28;20051;-64
2023/10/26 02:06:32;;;;;;;19.63;7.40;;;;;;;;;;5068529;28;20047;-64
2023/10/26 02:09:00;;;;;;;21.42;7.90;;;;;;;;;;5072095;28;20429;-64
2023/10/26 02:11:28;;;;;;;24.17;7.38;;;;;;;;;;5072955;28;20048;-64
2023/10/26 02:13:55;;;;;;;26.77;7.68;;;;;;;;;;5075240;28;20486;-64
2023/10/26 02:16:23;;;;;;;25.52;7.93;;;;;;;;;;5079688;28;20085;-64
2023/10/26 02:18:50;;;;;;;29.60;7.28;;;;;;;;;;5089138;28;20067;-65
2023/10/26 02:21:18;;;;;;;27.55;8.02;;;;;;;;;;5091801;28;20040;-64
2023/10/26 02:23:45;;;;;;;22.58;6.85;;;;;;;;;;5091932;28;20040;-65
2023/10/26 02:26:13;;;;;;;27.63;7.10;;;;;;;;;;5076470;28;20037;-65
2023/10/26 02:28:40;;;;;;;29.85;6.65;;;;;;;;;;5071707;28;20131;-65
2023/10/26 02:31:08;;;;;;;26.55;6.97;;;;;;;;;;5072763;28;20040;-65
2023/10/26 02:33:36;;;;;;;19.48;7.32;;;;;;;;;;5072662;28;20055;-64
2023/10/26 02:36:06;;;;;;;24.02;8.57;;;;;;;;;;5071390;28;20502;-64
2023/10/26 02:38:34;;;;;;;25.20;8.30;;;;;;;;;;5072536;28;20044;-64
2023/10/26 02:41:05;;;;;;;27.02;8.13;;;;;;;;;;5086273;28;20048;-65
2023/10/26 02:43:33;;;;;;;24.83;8.25;;;;;;;;;;5091719;28;20075;-65
2023/10/26 02:46:08;;;;;;;27.92;8.68;;;;;;;;;;5091405;28;20122;-64
2023/10/26 02:48:37;;;;;;;26.20;8.25;;;;;;;;;;5091347;28;20048;-65
2023/10/26 02:51:06;;;;;;;29.60;7.90;;;;;;;;;;5092760;28;20062;-65
2023/10/26 02:53:33;;;;;;;27.98;8.70;;;;;;;;;;5091263;28;20044;-65
2023/10/26 02:56:01;;;;;;;24.17;7.68;;;;;;;;;;5090077;28;20093;-64
2023/10/26 02:58:28;;;;;;;19.95;7.10;;;;;;;;;;5091244;28;20048;-65
2023/10/26 03:00:56;;;;;;;24.75;6.88;;;;;;;;;;5092640;28;20519;-64
2023/10/26 03:03:23;;;;;;;25.20;8.52;;;;;;;;;;5082252;28;20044;-64
2023/10/26 03:05:51;;;;;;;21.35;7.53;;;;;;;;;;5072418;28;20072;-64
2023/10/26 03:08:19;;;;;;;22.42;7.22;;;;;;;;;;5076534;28;20505;-64
2023/10/26 03:10:48;;;;;;;26.05;7.05;;;;;;;;;;5095737;28;20036;-65
2023/10/26 03:13:15;;;;;;;23.35;6.93;;;;;;;;;;5095435;28;20048;-64
2023/10/26 03:15:43;;;;;;;22.02;6.70;;;;;;;;;;5096528;28;20047;-64
2023/10/26 03:18:11;;;;;;;22.35;6.22;;;;;;;;;;5095143;28;20514;-65
2023/10/26 03:20:39;;;;;;;24.70;6.90;;;;;;;;;;5091730;28;20036;-64
2023/10/26 03:23:06;;;;;;;28.63;6.88;;;;;;;;;;5076072;28;20102;-64
2023/10/26 03:25:34;;;;;;;22.80;6.57;;;;;;;;;;5078807;28;20055;-64
2023/10/26 03:28:01;;;;;;;18.33;6.13;;;;;;;;;;5089830;28;20101;-65
2023/10/26 03:30:29;;;;;;;21.13;6.68;;;;;;;;;;5092744;28;20125;-65
2023/10/26 03:32:56;;;;;;;28.42;7.03;;;;;;;;;;5094966;28;20453;-65
2023/10/26 03:35:24;;;;;;;22.98;5.90;;;;;;;;;;5093445;28;20043;-66
2023/10/26 03:37:51;;;;;;;20.23;6.72;;;;;;;;;;5079605;28;20041;-67
2023/10/26 03:40:19;;;;;;;20.83;6.82;;;;;;;;;;5074477;28;20040;-66
2023/10/26 03:42:46;;;;;;;23.52;6.18;;;;;;;;;;5074592;28;20070;-66
2023/10/26 03:45:14;;;;;;;21.15;5.88;;;;;;;;;;5074460;28;20044;-66
2023/10/26 03:47:42;;;;;;;20.70;5.88;;;;;;;;;;5074590;28;20090;-67
2023/10/26 03:50:09;;;;;;;21.23;5.90;;;;;;;;;;5074575;28;20102;-68
2023/10/26 03:52:37;;;;;;;22.45;6.10;;;;;;;;;;5088367;28;20139;-68
2023/10/26 03:55:05;;;;;;;26.08;5.90;;;;;;;;;;5094620;28;20050;-67
2023/10/26 03:57:33;;;;;;;25.42;6.35;;;;;;;;;;5094582;28;20048;-66
2023/10/26 04:00:03;;;;;;;19.05;6.18;;;;;;;;;;5094361;28;20040;-65
2023/10/26 04:02:38;;;;;;;19.40;5.35;;;;;;;;;;5095836;28;20044;-65
2023/10/26 04:05:06;;;;;;;21.75;5.90;;;;;;;;;;5095641;28;20409;-65
2023/10/26 04:07:34;;;;;;;22.73;6.13;;;;;;;;;;5095572;28;20111;-65
2023/10/26 04:10:05;;;;;;;22.63;6.40;;;;;;;;;;5095149;28;20123;-66
2023/10/26 04:12:33;;;;;;;22.80;6.10;;;;;;;;;;5093431;28;20040;-66
2023/10/26 04:15:00;;;;;;;21.45;6.00;;;;;;;;;;5093898;28;20044;-67
2023/10/26 04:17:28;;;;;;;25.73;6.00;;;;;;;;;;5084014;28;20119;-66
2023/10/26 04:19:55;;;;;;;21.70;6.30;;;;;;;;;;5073514;28;20048;-66
2023/10/26 04:22:23;;;;;;;24.88;6.07;;;;;;;;;;5074548;28;20120;-66
2023/10/26 04:24:51;;;;;;;22.83;6.57;;;;;;;;;;5074729;28;20037;-66
2023/10/26 04:27:19;;;;;;;19.42;5.18;;;;;;;;;;5075214;28;20071;-66
2023/10/26 04:29:47;;;;;;;29.15;6.20;;;;;;;;;;5086713;28;20123;-66
2023/10/26 04:32:15;;;;;;;26.92;5.80;;;;;;;;;;5095499;28;20437;-66
2023/10/26 04:34:44;;;;;;;20.73;6.10;;;;;;;;;;5093720;28;20044;-66
2023/10/26 04:37:12;;;;;;;20.42;6.28;;;;;;;;;;5095176;28;20108;-66
2023/10/26 04:39:43;;;;;;;20.77;6.22;;;;;;;;;;5091562;28;20040;-65
2023/10/26 04:42:12;;;;;;;20.58;6.50;;;;;;;;;;5074740;28;20118;-66
2023/10/26 04:44:40;;;;;;;18.50;6.07;;;;;;;;;;5082224;28;20040;-66
2023/10/26 04:47:09;;;;;;;24.27;6.15;;;;;;;;;;5082929;28;20455;-66
2023/10/26 04:49:37;;;;;;;22.92;7.18;;;;;;;;;;5090065;28;20059;-65
2023/10/26 04:52:05;;;;;;;27.35;7.60;;;;;;;;;;5085150;28;20115;-65
2023/10/26 04:54:32;;;;;;;25.60;8.40;;;;;;;;;;5074201;28;20060;-65
2023/10/26 04:57:00;;;;;;;27.50;8.25;;;;;;;;;;5074332;28;20041;-65
2023/10/26 04:59:27;;;;;;;25.90;7.43;;;;;;;;;;5074307;28;20055;-64
2023/10/26 05:01:55;;;;;;;27.08;7.93;;;;;;;;;;5074235;28;20045;-65
2023/10/26 05:04:23;;;;;;;24.23;7.63;;;;;;;;;;5074393;28;20510;-65
2023/10/26 05:06:51;;;;;;;21.13;8.23;;;;;;;;;;5073206;28;20036;-65
2023/10/26 05:09:18;;;;;;;22.10;7.10;;;;;;;;;;5074281;28;20079;-65
2023/10/26 05:11:46;;;;;;;22.35;7.10;;;;;;;;;;5074207;28;20082;-65
2023/10/26 05:14:14;;;;;;;20.27;6.38;;;;;;;;;;5074131;28;20040;-65
2023/10/26 05:16:41;;;;;;;22.30;6.43;;;;;;;;;;5074168;28;20047;-65
2023/10/26 05:19:09;;;;;;;25.45;7.28;;;;;;;;;;5073856;28;20390;-65
2023/10/26 05:21:36;;;;;;;24.83;6.75;;;;;;;;;;5074095;28;20036;-65
2023/10/26 05:24:04;;;;;;;28.42;6.47;;;;;;;;;;5072948;28;20086;-65
2023/10/26 05:26:32;;;;;;;25.90;6.35;;;;;;;;;;5074340;28;20127;-65
2023/10/26 05:28:59;;;;;;;22.73;6.85;;;;;;;;;;5073806;28;20048;-65
2023/10/26 05:31:27;;;;;;;25.73;6.97;;;;;;;;;;5073709;28;20072;-65
2023/10/26 05:33:54;;;;;;;24.58;8.10;;;;;;;;;;5073712;28;20485;-64
2023/10/26 05:36:22;;;;;;;20.38;7.00;;;;;;;;;;5073685;28;20084;-64
2023/10/26 05:38:50;;;;;;;26.98;8.18;;;;;;;;;;5073743;28;20088;-64
2023/10/26 05:41:18;;;;;;;25.20;7.25;;;;;;;;;;5073603;28;20050;-65
2023/10/26 05:43:45;;;;;;;27.17;7.00;;;;;;;;;;5073646;28;20032;-64
2023/10/26 05:46:13;;;;;;;23.83;6.13;;;;;;;;;;5073441;28;20516;-64
2023/10/26 05:48:40;;;;;;;22.52;5.95;;;;;;;;;;5072685;28;20490;-64
2023/10/26 05:51:08;;;;;;;23.40;6.05;;;;;;;;;;5073434;28;20041;-65
2023/10/26 05:53:35;;;;;;;19.25;5.10;;;;;;;;;;5073124;28;20533;-65
2023/10/26 05:56:04;;;;;;;30.00;6.50;;;;;;;;;;5073334;28;20041;-65
2023/10/26 05:58:31;;;;;;;19.73;5.63;;;;;;;;;;5073174;28;20063;-65
2023/10/26 06:00:59;;;;;;;36.08;13.05;;;;;;;;;;5073313;28;20115;-65
2023/10/26 06:03:27;;;;;;;23.95;7.20;;;;;;;;;;5073159;28;20502;-65
2023/10/26 06:06:01;;;;;;;23.10;6.95;;;;;;;;;;5073013;28;20044;-65
2023/10/26 06:08:29;;;;;;;25.70;6.93;;;;;;;;;;5072903;28;20052;-65
2023/10/26 06:10:57;;;;;;;28.02;6.47;;;;;;;;;;5073444;28;20041;-65
2023/10/26 06:13:26;;;;;;;29.33;7.75;;;;;;;;;;5072961;28;20049;-65
2023/10/26 06:15:53;;;;;;;29.83;7.88;;;;;;;;;;5072945;28;20041;-65
2023/10/26 06:18:21;;;;;;;32.85;7.45;;;;;;;;;;5072765;28;20064;-65
2023/10/26 06:20:58;;;;;;;33.55;8.23;;;;;;;;;;5072876;28;20166;-65
2023/10/26 06:23:27;;;;;;;33.53;8.95;;;;;;;;;;5072873;28;20478;-65
2023/10/26 06:25:59;;;;;;;36.50;9.07;;;;;;;;;;5072682;28;20435;-66
2023/10/26 06:28:26;;;;;;;40.55;8.13;;;;;;;;;;5072656;28;20046;-65
2023/10/26 06:30:54;;;;;;;36.30;8.95;;;;;;;;;;5072769;28;20053;-65
2023/10/26 06:33:23;;;;;;;33.10;7.68;;;;;;;;;;5071612;28;20383;-65
2023/10/26 06:35:51;;;;;;;36.15;11.27;;;;;;;;;;5072729;28;20475;-65
2023/10/26 06:38:19;;;;;;;40.05;13.25;;;;;;;;;;5072303;28;20106;-65
2023/10/26 06:40:47;;;;;;;40.88;13.82;;;;;;;;;;5072530;28;20505;-65
2023/10/26 06:43:14;;;;;;;36.53;11.38;;;;;;;;;;5070806;28;20067;-65
2023/10/26 06:45:42;;;;;;;26.65;9.57;;;;;;;;;;5072563;28;20068;-65
2023/10/26 06:48:09;;;;;;;23.13;6.88;;;;;;;;;;5072304;28;20032;-65
2023/10/26 06:50:37;;;;;;;26.13;8.40;;;;;;;;;;5071319;28;20040;-65
2023/10/26 06:53:04;;;;;;;40.75;17.77;;;;;;;;;;5072400;28;20604;-65
2023/10/26 06:55:35;;;;;;;55.38;28.73;;;;;;;;;;5072371;28;20439;-65
2023/10/26 06:58:04;;;;;;;43.92;20.63;;;;;;;;;;5072271;28;20514;-65
2023/10/26 07:00:33;;;;;;;29.33;12.73;;;;;;;;;;5072662;28;20036;-66
2023/10/26 07:03:00;;;;;;;28.20;9.10;;;;;;;;;;5072408;28;20043;-65
2023/10/26 07:05:28;;;;;;;24.50;8.85;;;;;;;;;;5072206;28;20115;-65
2023/10/26 07:07:55;;;;;;;32.63;9.30;;;;;;;;;;5072365;28;20182;-65
2023/10/26 07:10:23;;;;;;;30.13;7.85;;;;;;;;;;5070968;28;20053;-65
2023/10/26 07:12:51;;;;;;;28.98;7.85;;;;;;;;;;5072198;28;20501;-65
2023/10/26 07:15:18;;;;;;;25.63;6.57;;;;;;;;;;5072267;28;20490;-65
2023/10/26 07:17:46;;;;;;;23.83;6.60;;;;;;;;;;5072188;28;20421;-65
2023/10/26 07:20:13;;;;;;;27.02;5.90;;;;;;;;;;5072505;28;20040;-65
2023/10/26 07:22:45;;;;;;;27.08;6.18;;;;;;;;;;5072208;28;20068;-65
2023/10/26 07:25:12;;;;;;;32.50;6.70;;;;;;;;;;5070941;28;20049;-65
2023/10/26 07:27:40;;;;;;;26.85;5.95;;;;;;;;;;5071122;28;20120;-65
2023/10/26 07:30:08;;;;;;;30.25;6.78;;;;;;;;;;5071033;28;20047;-65
2023/10/26 07:32:35;;;;;;;27.75;5.63;;;;;;;;;;5072197;28;20040;-66
2023/10/26 07:35:03;;;;;;;24.42;5.95;;;;;;;;;;5072105;28;20045;-65
2023/10/26 07:37:31;;;;;;;32.17;5.80;;;;;;;;;;5072109;28;20070;-65
2023/10/26 07:39:58;;;;;;;25.40;5.72;;;;;;;;;;5070568;28;20062;-65
2023/10/26 07:42:46;;;;;;;17.52;4.30;;;;;;;;;;5072044;28;20055;-65
2023/10/26 07:45:13;;;;;;;18.55;4.53;;;;;;;;;;5072111;28;20044;-65
2023/10/26 07:47:41;;;;;;;17.17;4.47;;;;;;;;;;5071914;28;20036;-65
2023/10/26 07:50:09;;;;;;;19.83;4.35;;;;;;;;;;5071954;28;20491;-65
2023/10/26 07:52:36;;;;;;;19.30;4.70;;;;;;;;;;5071802;28;20045;-66
2023/10/26 07:55:04;;;;;;;20.73;4.10;;;;;;;;;;5074321;28;20051;-66
2023/10/26 07:57:31;;;;;;;16.58;4.18;;;;;;;;;;5075478;28;20119;-65
2023/10/26 07:59:59;;;;;;;15.20;3.63;;;;;;;;;;5073956;28;20131;-65
2023/10/26 08:02:38;;;;;;;16.25;4.30;;;;;;;;;;5075885;28;20086;-65
2023/10/26 08:05:08;;;;;;;20.23;4.05;;;;;;;;;;5075449;28;20044;-66
2023/10/26 08:07:39;;;;;;;44.20;7.03;;;;;;;;;;5075482;28;20112;-66
2023/10/26 08:10:08;;;;;;;17.27;3.88;;;;;;;;;;5075615;28;20052;-66
2023/10/26 08:12:35;;;;;;;28.40;5.05;;;;;;;;;;5075391;28;20045;-66
2023/10/26 08:15:04;;;;;;;55.00;8.32;;;;;;;;;;5075347;28;20045;-66
2023/10/26 08:17:51;;;;;;;12.52;3.38;;;;;;;;;;5075098;28;20509;-66
2023/10/26 08:20:20;;;;;;;65.28;8.38;;;;;;;;;;5075334;28;20498;-66
2023/10/26 08:22:47;;;;;;;46.20;6.80;;;;;;;;;;5075195;28;20048;-66
2023/10/26 08:25:15;;;;;;;13.50;2.95;;;;;;;;;;5075165;28;20040;-65
2023/10/26 08:27:49;;;;;;;;;;;;;;;;;;5075489;28;20083;-65
2023/10/26 08:30:17;;;;;;;9.85;2.25;;;;;;;;;;5074904;28;20267;-65
2023/10/26 08:32:45;;;;;;;10.07;2.53;;;;;;;;;;5074971;28;20036;-65
2023/10/26 08:35:13;;;;;;;13.27;2.75;;;;;;;;;;5075137;28;20068;-65
2023/10/26 08:37:41;;;;;;;10.38;2.70;;;;;;;;;;5074904;28;20040;-65
2023/10/26 08:40:12;;;;;;;9.43;2.83;;;;;;;;;;5074694;28;20048;-65
2023/10/26 08:42:40;;;;;;;11.48;2.72;;;;;;;;;;5074897;28;20499;-67
2023/10/26 08:45:12;;;;;;;12.18;3.63;;;;;;;;;;5073699;28;20036;-66
2023/10/26 08:47:41;;;;;;;10.85;3.17;;;;;;;;;;5074669;28;20094;-66
2023/10/26 08:50:11;;;;;;;11.40;3.50;;;;;;;;;;5074590;28;20047;-65
2023/10/26 08:52:43;;;;;;;16.17;3.38;;;;;;;;;;5074663;28;20033;-66
2023/10/26 08:55:14;;;;;;;12.98;3.60;;;;;;;;;;5074481;28;20079;-66
2023/10/26 08:57:48;;;;;;;13.30;3.90;;;;;;;;;;5074819;28;20037;-66
2023/10/26 09:00:16;;;;;;;;;;;;;;;;;;5075053;28;20048;-66
2023/10/26 09:02:44;;;;;;;11.50;3.50;;;;;;;;;;5074540;28;19920;-66
2023/10/26 09:05:12;;;;;;;11.52;3.75;;;;;;;;;;5074094;28;20521;-67
2023/10/26 09:07:40;;;;;;;16.92;4.25;;;;;;;;;;5074102;28;20493;-65
2023/10/26 09:10:08;;;;;;;12.85;3.25;;;;;;;;;;5074299;28;20090;-65
2023/10/26 09:12:35;;;;;;;12.55;2.80;;;;;;;;;;5074124;28;20028;-66
2023/10/26 09:15:06;;;;;;;12.60;3.25;;;;;;;;;;5074231;28;20044;-65
2023/10/26 09:17:33;;;;;;;14.13;4.07;;;;;;;;;;5074347;28;20090;-65
2023/10/26 09:20:18;;;;;;;13.25;4.35;;;;;;;;;;5072748;28;20079;-66
2023/10/26 09:22:45;;;;;;;14.80;3.28;;;;;;;;;;5074128;28;20076;-65
2023/10/26 09:25:14;;;;;;;11.45;3.30;;;;;;;;;;5073947;28;20037;-65
2023/10/26 09:27:42;;;;;;;14.25;3.80;;;;;;;;;;5072843;28;20052;-65
2023/10/26 09:30:24;;;;;;;8.65;2.83;;;;;;;;;;5073554;28;20075;-65
2023/10/26 09:32:52;;;;;;;14.40;3.40;;;;;;;;;;5074087;28;20045;-65
2023/10/26 09:35:27;;;;;;;11.07;2.80;;;;;;;;;;5073665;28;20090;-65
2023/10/26 09:37:54;;;;;;;10.73;2.90;;;;;;;;;;5072574;28;20102;-66
2023/10/26 09:40:22;;;;;;;10.68;3.33;;;;;;;;;;5073503;28;20040;-66
2023/10/26 09:42:51;;;;;;;12.98;3.05;;;;;;;;;;5073437;28;20036;-66
2023/10/26 09:45:19;;;;;;;9.77;3.15;;;;;;;;;;5073927;28;20041;-66
2023/10/26 09:47:47;;;;;;;11.35;3.08;;;;;;;;;;5073437;28;20032;-66
2023/10/26 09:50:15;;;;;;;11.63;3.10;;;;;;;;;;5073410;28;20041;-66
2023/10/26 09:52:43;;;;;;;12.68;2.83;;;;;;;;;;5073460;28;20043;-66
2023/10/26 09:55:11;;;;;;;11.68;2.90;;;;;;;;;;5073840;28;20051;-65
2023/10/26 09:58:02;;;;;;;11.77;2.92;;;;;;;;;;5071966;28;20040;-66
2023/10/26 10:00:32;;;;;;;13.95;3.65;;;;;;;;;;5067784;28;20060;-66
2023/10/26 10:03:10;;;;;;;10.85;3.30;;;;;;;;;;5073202;28;20040;-66
2023/10/26 10:05:38;;;;;;;12.73;4.13;;;;;;;;;;5073531;28;20437;-66
2023/10/26 10:08:06;;;;;;;12.13;3.53;;;;;;;;;;5071805;28;20044;-66
2023/10/26 10:10:34;;;;;;;10.75;2.95;;;;;;;;;;5072914;28;20066;-66
2023/10/26 10:13:01;;;;;;;10.00;2.90;;;;;;;;;;5073120;28;20521;-66
2023/10/26 10:15:36;;;;;;;11.63;4.13;;;;;;;;;;5072901;28;20043;-66
2023/10/26 10:18:10;;;;;;;13.80;4.13;;;;;;;;;;5072108;28;20044;-66
2023/10/26 10:20:40;;;;;;;9.50;2.67;;;;;;;;;;5071469;28;20041;-66
2023/10/26 10:23:08;;;;;;;8.85;2.85;;;;;;;;;;5072809;28;20501;-65
2023/10/26 10:25:50;;;;;;;11.85;3.58;;;;;;;;;;5072918;28;20048;-65
2023/10/26 10:28:18;;;;;;;16.65;7.72;;;;;;;;;;5072791;28;20093;-66
2023/10/26 10:30:52;;;;;;;11.35;3.40;;;;;;;;;;5072882;28;20437;-65
2023/10/26 10:33:22;;;;;;;8.55;2.63;;;;;;;;;;5073011;28;20045;-66
2023/10/26 10:36:03;;;;;;;13.48;4.63;;;;;;;;;;5073465;28;20044;-66
2023/10/26 10:38:31;;;;;;;11.88;2.90;;;;;;;;;;5092778;28;20028;-66
2023/10/26 10:40:58;;;;;;;11.93;3.30;;;;;;;;;;5092761;28;20040;-65
2023/10/26 10:43:32;;;;;;;12.65;3.55;;;;;;;;;;5092686;28;20116;-65
2023/10/26 10:46:09;;;;;;;16.52;3.53;;;;;;;;;;5091310;28;20054;-65
2023/10/26 10:48:54;;;;;;;9.23;2.30;;;;;;;;;;5092801;28;20071;-65
2023/10/26 10:51:22;;;;;;;14.50;2.72;;;;;;;;;;5091352;28;20112;-65
2023/10/26 10:53:50;;;;;;;11.63;3.28;;;;;;;;;;5092534;28;20487;-65
2023/10/26 10:56:18;;;;;;;10.07;3.40;;;;;;;;;;5092990;28;20078;-65
2023/10/26 10:58:45;;;;;;;10.27;3.20;;;;;;;;;;5092644;28;20054;-65
2023/10/26 11:01:18;;;;;;;10.45;2.88;;;;;;;;;;5092499;28;20044;-65
2023/10/26 11:03:46;;;;;;;8.38;2.17;;;;;;;;;;5092558;28;20076;-65
2023/10/26 11:06:17;;;;;;;5.88;2.28;;;;;;;;;;5092581;28;20115;-65
2023/10/26 11:08:45;;;;;;;8.52;2.25;;;;;;;;;;5092611;28;20036;-65
2023/10/26 11:11:29;;;;;;;8.73;2.20;;;;;;;;;;5092612;28;20493;-65
2023/10/26 11:14:09;;;;;;;18.50;3.03;;;;;;;;;;5092476;28;20040;-65
2023/10/26 11:16:38;;;;;;;9.95;2.67;;;;;;;;;;5092708;28;20452;-65
2023/10/26 11:19:06;;;;;;;7.05;2.20;;;;;;;;;;5092569;28;20065;-65
2023/10/26 11:21:33;;;;;;;14.80;4.03;;;;;;;;;;5092145;28;20046;-65
2023/10/26 11:24:01;;;;;;;9.43;2.63;;;;;;;;;;5092282;28;20073;-65
2023/10/26 11:26:29;;;;;;;9.57;2.25;;;;;;;;;;5092073;28;20124;-65
2023/10/26 11:28:56;;;;;;;8.85;2.47;;;;;;;;;;5094354;28;20050;-66
2023/10/26 11:31:36;;;;;;;10.73;2.95;;;;;;;;;;5087582;28;20045;-66
2023/10/26 11:34:07;;;;;;;8.70;3.38;;;;;;;;;;5088702;28;20552;-66
2023/10/26 11:36:35;;;;;;;11.90;3.08;;;;;;;;;;5075525;28;20045;-66
2023/10/26 11:39:03;;;;;;;10.25;2.20;;;;;;;;;;5080675;28;20048;-67
2023/10/26 11:41:33;;;;;;;7.85;2.30;;;;;;;;;;5077401;28;20040;-67
2023/10/26 11:44:01;;;;;;;10.70;2.83;;;;;;;;;;5075097;28;20487;-67
2023/10/26 11:46:33;;;;;;;12.32;2.65;;;;;;;;;;5074660;28;20524;-65
2023/10/26 11:49:01;;;;;;;8.63;2.58;;;;;;;;;;5082428;28;20545;-66
2023/10/26 11:51:29;;;;;;;13.45;6.00;;;;;;;;;;5084531;28;20394;-65
2023/10/26 11:53:57;;;;;;;10.50;3.63;;;;;;;;;;5083417;28;20048;-67
2023/10/26 11:56:25;;;;;;;8.93;3.40;;;;;;;;;;5085152;28;20429;-67
2023/10/26 11:58:52;;;;;;;12.73;3.25;;;;;;;;;;5086927;28;20039;-66
2023/10/26 12:01:20;;;;;;;19.25;2.97;;;;;;;;;;5074869;28;20041;-66
2023/10/26 12:03:47;;;;;;;15.43;3.00;;;;;;;;;;5075424;28;20041;-66
2023/10/26 12:06:15;;;;;;;7.78;2.40;;;;;;;;;;5075228;28;20120;-66
2023/10/26 12:08:43;;;;;;;11.38;2.60;;;;;;;;;;5075379;28;20090;-66
2023/10/26 12:11:11;;;;;;;10.00;2.67;;;;;;;;;;5075292;28;20044;-66
2023/10/26 12:13:38;;;;;;;8.70;2.25;;;;;;;;;;5075157;28;20033;-66
2023/10/26 12:16:06;;;;;;;9.55;2.40;;;;;;;;;;5075089;28;20057;-66
2023/10/26 12:18:34;;;;;;;9.43;2.08;;;;;;;;;;5075179;28;20086;-66
2023/10/26 12:21:01;;;;;;;8.00;2.83;;;;;;;;;;5074959;28;20449;-66
2023/10/26 12:23:29;;;;;;;9.32;2.50;;;;;;;;;;5073845;28;20434;-66
2023/10/26 12:25:56;;;;;;;9.25;2.65;;;;;;;;;;5074926;28;20402;-67
2023/10/26 12:28:24;;;;;;;12.40;2.40;;;;;;;;;;5074876;28;20395;-67
2023/10/26 12:30:56;;;;;;;10.70;2.65;;;;;;;;;;5074912;28;20072;-66
2023/10/26 12:33:24;;;;;;;9.48;2.05;;;;;;;;;;5074724;28;20486;-66
2023/10/26 12:35:51;;;;;;;8.45;2.40;;;;;;;;;;5074789;28;20556;-66
2023/10/26 12:38:23;;;;;;;10.35;2.53;;;;;;;;;;5074687;28;20045;-66
2023/10/26 12:40:51;;;;;;;8.02;2.30;;;;;;;;;;5073797;28;20040;-66
2023/10/26 12:43:18;;;;;;;10.88;2.50;;;;;;;;;;5074633;28;20036;-66
2023/10/26 12:45:46;;;;;;;8.43;2.28;;;;;;;;;;5074469;28;20047;-66
2023/10/26 12:48:13;;;;;;;8.82;2.95;;;;;;;;;;5073481;28;20062;-66
2023/10/26 12:50:41;;;;;;;6.32;2.60;;;;;;;;;;5074477;28;20044;-66
2023/10/26 12:53:08;;;;;;;11.55;2.58;;;;;;;;;;5074555;28;20080;-66
2023/10/26 12:55:36;;;;;;;10.75;2.22;;;;;;;;;;5073413;28;20036;-66
2023/10/26 12:58:03;;;;;;;7.35;1.88;;;;;;;;;;5074409;28;20398;-66
2023/10/26 13:00:32;;;;;;;10.32;2.47;;;;;;;;;;5074373;28;20037;-66
2023/10/26 13:03:00;;;;;;;8.57;2.50;;;;;;;;;;5074378;28;20039;-66
2023/10/26 13:05:27;;;;;;;10.15;2.88;;;;;;;;;;5074337;28;20447;-66
2023/10/26 13:07:55;;;;;;;10.85;2.75;;;;;;;;;;5074235;28;20045;-66
2023/10/26 13:10:22;;;;;;;10.52;2.67;;;;;;;;;;5074287;28;20427;-66
2023/10/26 13:12:50;;;;;;;9.10;2.95;;;;;;;;;;5072941;28;20075;-66
2023/10/26 13:15:18;;;;;;;18.75;10.02;;;;;;;;;;5074171;28;20475;-67
2023/10/26 13:17:48;;;;;;;12.50;3.72;;;;;;;;;;5074272;28;20063;-67
2023/10/26 13:20:15;;;;;;;8.93;3.35;;;;;;;;;;5074070;28;20044;-67
2023/10/26 13:22:43;;;;;;;7.57;3.00;;;;;;;;;;5072698;28;20059;-67
2023/10/26 13:25:11;;;;;;;7.18;2.42;;;;;;;;;;5074149;28;20438;-66
2023/10/26 13:27:38;;;;;;;13.95;2.70;;;;;;;;;;5073656;28;20490;-66
2023/10/26 13:30:06;;;;;;;5.80;2.28;;;;;;;;;;5072960;28;20119;-66
2023/10/26 13:32:34;;;;;;;6.90;2.33;;;;;;;;;;5073726;28;20090;-67
2023/10/26 13:35:01;;;;;;;6.57;2.28;;;;;;;;;;5073727;28;20055;-66
2023/10/26 13:37:29;;;;;;;7.22;2.45;;;;;;;;;;5073494;28;20098;-66
2023/10/26 13:39:57;;;;;;;9.15;2.60;;;;;;;;;;5073611;28;20047;-66
2023/10/26 13:42:26;;;;;;;6.50;2.80;;;;;;;;;;5072611;28;20041;-67
2023/10/26 13:44:55;;;;;;;8.82;2.33;;;;;;;;;;5072413;28;20040;-70
2023/10/26 13:47:22;;;;;;;8.48;2.65;;;;;;;;;;5073464;28;20072;-68
2023/10/26 13:49:53;;;;;;;12.65;2.20;;;;;;;;;;5072311;28;20041;-68
2023/10/26 13:52:21;;;;;;;10.45;2.47;;;;;;;;;;5072021;28;20043;-69
2023/10/26 13:54:48;;;;;;;9.38;2.40;;;;;;;;;;5073204;28;20509;-69
2023/10/26 13:57:16;;;;;;;10.50;2.60;;;;;;;;;;5073072;28;20154;-69
2023/10/26 13:59:43;;;;;;;13.48;2.80;;;;;;;;;;5071924;28;20040;-70
2023/10/26 14:02:11;;;;;;;14.18;2.83;;;;;;;;;;5071857;28;20044;-70
2023/10/26 14:04:38;;;;;;;9.25;2.85;;;;;;;;;;5072845;28;20052;-66
2023/10/26 14:07:09;;;;;;;8.77;2.70;;;;;;;;;;5072799;28;20090;-66
2023/10/26 14:09:36;;;;;;;10.80;3.30;;;;;;;;;;5072702;28;20559;-67
2023/10/26 14:12:04;;;;;;;6.28;2.78;;;;;;;;;;5072657;28;20090;-67
2023/10/26 14:14:34;;;;;;;12.10;3.03;;;;;;;;;;5072659;28;20045;-67
2023/10/26 14:17:03;;;;;;;12.93;3.72;;;;;;;;;;5066004;28;20044;-67
2023/10/26 14:19:31;;;;;;;16.27;3.95;;;;;;;;;;5064999;28;20093;-67
2023/10/26 14:21:58;;;;;;;12.77;3.58;;;;;;;;;;5066949;28;20097;-67
2023/10/26 14:24:26;;;;;;;14.27;3.85;;;;;;;;;;5067226;28;20042;-67
2023/10/26 14:26:54;;;;;;;14.80;3.90;;;;;;;;;;5066950;28;20139;-67
2023/10/26 14:29:21;;;;;;;11.95;3.78;;;;;;;;;;5066732;28;20494;-67
2023/10/26 14:31:49;;;;;;;12.63;4.47;;;;;;;;;;5051323;28;20590;-67
2023/10/26 14:34:16;;;;;;;13.02;4.15;;;;;;;;;;5066611;28;20040;-68
2023/10/26 14:36:44;;;;;;;20.50;4.63;;;;;;;;;;5066959;28;20080;-67
2023/10/26 14:39:11;;;;;;;12.05;3.65;;;;;;;;;;5066781;28;20040;-68